Flight Track Log - Related Links

Times and Time Zones

All times are in EST time to prevent confusion due to time zone crossing. See the UAL33 flight status page for this flight to view local times or setup timezone preferences in your user account.

Time Position Orientation Groundspeed Altitude Reporting Facility
EST Latitude Longitude Course Direction KTS MPH feet Rate Location/Type
Mon 04:54:00 AM 36.2794 141.3428 90° East  Level Estimated
Mon 04:55:00 AM 36.3645 141.5034 90° East  Level Estimated
Mon 04:56:00 AM 36.4493 141.6644 83° East  Level Estimated
Mon 04:57:00 AM 36.5339 141.8257 90° East  Level Estimated
Mon 04:58:00 AM 36.4635 141.9973 117° Southeast  Level FlightAware Approximate
Mon 04:59:00 AM 36.3929 142.1685 117° Southeast  Level FlightAware Approximate
Mon 05:00:00 AM 36.4770 142.3302 87° East  Level Estimated
Mon 05:01:00 AM 36.4092 142.5033 116° Southeast  Level FlightAware Approximate
Mon 05:02:00 AM 36.4929 142.6652 77° East  Level Estimated
Mon 05:03:00 AM 36.4323 142.8424 113° Southeast  Level FlightAware Approximate
Mon 05:04:00 AM 36.5156 143.0048 78° East  Level Estimated
Mon 05:05:00 AM 36.4893 143.1946 100° East  Level FlightAware Approximate
Mon 05:06:00 AM 36.4627 143.3843 100° East  Level FlightAware Approximate
Mon 05:07:00 AM 36.4359 143.5739 100° East  Level FlightAware Approximate
Mon 05:08:00 AM 36.4087 143.7634 100° East  Level FlightAware Approximate
Mon 05:09:00 AM 36.3812 143.9527 100° East  Level FlightAware Approximate
Mon 05:10:00 AM 36.3534 144.1419 100° East  Level FlightAware Approximate
Mon 05:11:00 AM 36.4353 144.3052 73° East  Level Estimated
Mon 05:12:00 AM 36.5170 144.4688 68° East  Level Estimated
Mon 05:13:00 AM 36.5059 144.6610 94° East  Level FlightAware Approximate
Mon 05:14:00 AM 36.4945 144.8531 94° East  Level FlightAware Approximate
Mon 05:15:00 AM 36.5755 145.0173 74° East  Level Estimated
Mon 05:16:00 AM 36.5953 145.2086 83° East  Level FlightAware Approximate
Mon 05:17:00 AM 36.6147 145.4000 83° East  Level FlightAware Approximate
Mon 05:18:00 AM 36.6339 145.5914 83° East  Level FlightAware Approximate
Mon 05:19:00 AM 36.6527 145.7830 83° East  Level FlightAware Approximate
Mon 05:20:00 AM 36.6713 145.9761 83° East  Level FlightAware Approximate
Mon 05:21:00 AM 36.6897 146.1694 83° East  Level FlightAware Approximate
Mon 05:22:00 AM 36.7077 146.3627 83° East  Level FlightAware Approximate
Mon 05:23:00 AM 36.7254 146.5561 83° East  Level FlightAware Approximate
Mon 05:24:00 AM 36.7429 146.7496 84° East  Level FlightAware Approximate
Mon 05:25:00 AM 36.7600 146.9432 84° East  Level FlightAware Approximate
Mon 05:26:00 AM 36.7767 147.1369 84° East  Level FlightAware Approximate
Mon 05:27:00 AM 36.8557 147.3050 84° East  Level Estimated
Mon 05:28:00 AM 36.8681 147.4994 85° East  Level FlightAware Approximate
Mon 05:29:00 AM 36.8803 147.6939 85° East  Level FlightAware Approximate
Mon 05:30:00 AM 36.8921 147.8885 86° East  Level FlightAware Approximate
Mon 05:31:00 AM 36.9036 148.0831 86° East  Level FlightAware Approximate
Mon 05:32:00 AM 36.9148 148.2777 86° East  Level FlightAware Approximate
Mon 05:33:00 AM 36.9257 148.4724 86° East  Level FlightAware Approximate
Mon 05:34:00 AM 36.9363 148.6672 86° East  Level FlightAware Approximate
Mon 05:35:00 AM 37.0134 148.8370 80° East  Level Estimated
Mon 05:36:00 AM 37.0396 149.0297 80° East  Level FlightAware Approximate
Mon 05:37:00 AM 37.0656 149.2225 80° East  Level FlightAware Approximate
Mon 05:38:00 AM 37.0912 149.4155 80° East  Level FlightAware Approximate
Mon 05:39:00 AM 37.1165 149.6085 81° East  Level FlightAware Approximate
Mon 05:40:00 AM 37.1415 149.8017 81° East  Level FlightAware Approximate
Mon 05:41:00 AM 37.1662 149.9951 81° East  Level FlightAware Approximate
Mon 05:42:00 AM 37.1906 150.1885 81° East  Level FlightAware Approximate
Mon 05:43:00 AM 37.2146 150.3821 81° East  Level FlightAware Approximate
Mon 05:44:00 AM 37.2384 150.5758 81° East  Level FlightAware Approximate
Mon 05:45:00 AM 37.2618 150.7696 81° East  Level FlightAware Approximate
Mon 05:46:00 AM 37.2849 150.9635 81° East  Level FlightAware Approximate
Mon 05:47:00 AM 37.3077 151.1576 82° East  Level FlightAware Approximate
Mon 05:48:00 AM 37.3302 151.3518 82° East  Level FlightAware Approximate
Mon 05:49:00 AM 37.3523 151.5461 82° East  Level FlightAware Approximate
Mon 05:50:00 AM 37.3742 151.7404 82° East  Level FlightAware Approximate
Mon 05:51:00 AM 37.3957 151.9350 82° East  Level FlightAware Approximate
Mon 05:52:00 AM 37.4169 152.1296 82° East  Level FlightAware Approximate
Mon 05:53:00 AM 37.4378 152.3243 82° East  Level FlightAware Approximate
Mon 05:54:00 AM 37.4584 152.5192 82° East  Level FlightAware Approximate
Mon 05:55:00 AM 37.4786 152.7141 82° East  Level FlightAware Approximate
Mon 05:56:00 AM 37.4986 152.9092 83° East  Level FlightAware Approximate
Mon 05:57:00 AM 37.5182 153.1043 83° East  Level FlightAware Approximate
Mon 05:58:00 AM 37.5374 153.2996 83° East  Level FlightAware Approximate
Mon 05:59:00 AM 37.5564 153.4949 83° East  Level FlightAware Approximate
Mon 06:00:00 AM 37.5750 153.6904 83° East  Level FlightAware Approximate
Mon 06:01:00 AM 37.5933 153.8860 83° East  Level FlightAware Approximate
Mon 06:02:00 AM 37.6113 154.0816 83° East  Level FlightAware Approximate
Mon 06:03:00 AM 37.6290 154.2774 83° East  Level FlightAware Approximate
Mon 06:04:00 AM 37.6464 154.4732 84° East  Level FlightAware Approximate
Mon 06:05:00 AM 37.6634 154.6691 84° East  Level FlightAware Approximate
Mon 06:06:00 AM 37.6801 154.8651 84° East  Level FlightAware Approximate
Mon 06:07:00 AM 37.6965 155.0612 84° East  Level FlightAware Approximate
Mon 06:08:00 AM 37.7125 155.2574 84° East  Level FlightAware Approximate
Mon 06:09:00 AM 37.7282 155.4537 84° East  Level FlightAware Approximate
Mon 06:10:00 AM 37.7436 155.6501 84° East  Level FlightAware Approximate
Mon 06:11:00 AM 37.7587 155.8465 84° East  Level FlightAware Approximate
Mon 06:12:00 AM 37.7735 156.0430 85° East  Level FlightAware Approximate
Mon 06:13:00 AM 37.7879 156.2396 85° East  Level FlightAware Approximate
Mon 06:14:00 AM 37.8020 156.4363 85° East  Level FlightAware Approximate
Mon 06:15:00 AM 37.8157 156.6330 85° East  Level FlightAware Approximate
Mon 06:16:00 AM 37.8292 156.8298 85° East  Level FlightAware Approximate
Mon 06:17:00 AM 37.8423 157.0267 85° East  Level FlightAware Approximate
Mon 06:18:00 AM 37.8551 157.2237 85° East  Level FlightAware Approximate
Mon 06:19:00 AM 37.8675 157.4207 85° East  Level FlightAware Approximate
Mon 06:20:00 AM 37.8797 157.6178 85° East  Level FlightAware Approximate
Mon 06:21:00 AM 37.8915 157.8150 86° East  Level FlightAware Approximate
Mon 06:22:00 AM 37.9029 158.0122 86° East  Level FlightAware Approximate
Mon 06:23:00 AM 37.9141 158.2095 86° East  Level FlightAware Approximate
Mon 06:24:00 AM 37.9249 158.4068 86° East  Level FlightAware Approximate
Mon 06:25:00 AM 37.9354 158.6042 86° East  Level FlightAware Approximate
Mon 06:26:00 AM 38.0004 158.7841 80° East  Level Estimated
Mon 06:27:00 AM 38.0244 158.9798 81° East  Level FlightAware Approximate
Mon 06:28:00 AM 38.0482 159.1756 81° East  Level FlightAware Approximate
Mon 06:29:00 AM 38.0717 159.3716 81° East  Level FlightAware Approximate
Mon 06:30:00 AM 38.0948 159.5677 81° East  Level FlightAware Approximate
Mon 06:31:00 AM 38.1176 159.7639 82° East  Level FlightAware Approximate
Mon 06:32:00 AM 38.1400 159.9602 82° East  Level FlightAware Approximate
Mon 06:33:00 AM 38.1622 160.1566 82° East  Level FlightAware Approximate
Mon 06:34:00 AM 38.1840 160.3531 82° East  Level FlightAware Approximate
Mon 06:35:00 AM 38.2055 160.5498 82° East  Level FlightAware Approximate
Mon 06:36:00 AM 38.2266 160.7466 82° East  Level FlightAware Approximate
Mon 06:37:00 AM 38.2475 160.9435 82° East  Level FlightAware Approximate
Mon 06:38:00 AM 38.2679 161.1405 82° East  Level FlightAware Approximate
Mon 06:39:00 AM 38.2881 161.3376 83° East  Level FlightAware Approximate
Mon 06:40:00 AM 38.3080 161.5348 83° East  Level FlightAware Approximate
Mon 06:41:00 AM 38.3275 161.7322 83° East  Level FlightAware Approximate
Mon 06:42:00 AM 38.3466 161.9296 83° East  Level FlightAware Approximate
Mon 06:43:00 AM 38.3655 162.1272 83° East  Level FlightAware Approximate
Mon 06:44:00 AM 38.3840 162.3248 83° East  Level FlightAware Approximate
Mon 06:45:00 AM 38.4022 162.5225 83° East  Level FlightAware Approximate
Mon 06:46:00 AM 38.4200 162.7204 83° East  Level FlightAware Approximate
Mon 06:47:00 AM 38.4376 162.9183 83° East  Level FlightAware Approximate
Mon 06:48:00 AM 38.4547 163.1163 84° East  Level FlightAware Approximate
Mon 06:49:00 AM 38.4716 163.3145 84° East  Level FlightAware Approximate
Mon 06:50:00 AM 38.4880 163.5119 84° East  Level FlightAware Approximate
Mon 06:51:00 AM 38.5465 163.6960 83° East  Level Estimated
Mon 06:52:00 AM 38.5659 163.8932 83° East  Level FlightAware Approximate
Mon 06:53:00 AM 38.5850 164.0906 83° East  Level FlightAware Approximate
Mon 06:54:00 AM 38.6038 164.2880 83° East  Level FlightAware Approximate
Mon 06:55:00 AM 38.6222 164.4855 83° East  Level FlightAware Approximate
Mon 06:56:00 AM 38.6403 164.6832 83° East  Level FlightAware Approximate
Mon 06:57:00 AM 38.6581 164.8809 83° East  Level FlightAware Approximate
Mon 06:58:00 AM 38.6755 165.0788 83° East  Level FlightAware Approximate
Mon 06:58:20 AM 38.8667 167.9167 85° East 626 720 39,000  Level Oakland Oceanic (ODAPS)
Mon 07:08:02 AM 39.0000 170.0000 72° East 620 713 39,000  Level Oakland Oceanic (ODAPS)
Mon 07:12:13 AM 39.2333 170.9167 73° East 619 712 39,000  Level Oakland Oceanic (ODAPS)
Mon 07:26:06 AM 39.8833 173.8667 75° East 619 712 39,000  Level Oakland Oceanic (ODAPS)
Mon 07:39:57 AM 40.4833 176.8500 77° East 608 700 39,000  Level Oakland Oceanic (ODAPS)
Mon 07:53:49 AM 40.9833 179.8500 82° East 605 696 39,000  Level Oakland Oceanic (ODAPS)
Mon 07:54:35 AM 41.0000 180.0000 72° East 606 697 39,000  Level Oakland Oceanic (ODAPS)
Mon 08:07:41 AM 41.6667 -177.2000 74° East 607 699 39,000 67 Level Oakland Oceanic (ODAPS)
Mon 08:21:33 AM 42.2833 -174.1500 75° East 593 682 40,800 72 Climbing Oakland Oceanic (ODAPS)
Mon 08:35:26 AM 42.8167 -171.1333 77° East 590 679 41,000 10 Climbing Oakland Oceanic (ODAPS)
Mon 08:40:42 AM 43.0000 -170.0000 79° East 583 671 41,000  Level Oakland Oceanic (ODAPS)
Mon 08:49:18 AM 43.2667 -168.1167 80° East 582 670 41,000  Level Oakland Oceanic (ODAPS)
Mon 09:03:09 AM 43.6000 -165.1167 82° East 568 654 41,000  Level Oakland Oceanic (ODAPS)
Mon 09:17:01 AM 43.8667 -162.1667 84° East 559 643 41,000  Level Oakland Oceanic (ODAPS)
Mon 09:27:15 AM 44.0000 -160.0000 94° East 550 633 41,000  Level Oakland Oceanic (ODAPS)
Mon 09:31:01 AM 43.9500 -159.2167 95° East 542 624 41,000  Level Oakland Oceanic (ODAPS)
Mon 09:44:47 AM 43.7500 -156.3833 97° East 537 618 41,000  Level Oakland Oceanic (ODAPS)
Mon 09:58:37 AM 43.4667 -153.5833 99° East 529 609 41,000  Level Oakland Oceanic (ODAPS)
Mon 10:12:29 AM 43.1167 -150.8667 100° East 510 587 41,000  Level Oakland Oceanic (ODAPS)
Mon 10:17:12 AM 43.0000 -150.0000 94° East 511 588 41,000  Level Oakland Oceanic (ODAPS)
Mon 10:26:21 AM 42.8833 -148.2667 95° East 505 581 41,000  Level Oakland Oceanic (ODAPS)
Mon 10:40:13 AM 42.6667 -145.6000 97° East 510 587 41,000  Level Oakland Oceanic (ODAPS)
Mon 10:54:14 AM 42.3833 -142.9500 99° East 514 592 41,000  Level Oakland Oceanic (ODAPS)
Mon 11:07:57 AM 42.0500 -140.3333 101° East 525 604 41,000  Level Oakland Oceanic (ODAPS)
Mon 11:09:44 AM 42.0000 -140.0000 102° East 525 604 41,000  Level Oakland Oceanic (ODAPS)
Mon 11:21:50 AM 41.6167 -137.6667 103° East 532 612 41,000  Level Oakland Oceanic (ODAPS)
Mon 11:35:41 AM 41.1333 -135.0667 105° East 522 601 41,000  Level Oakland Oceanic (ODAPS)
Mon 11:49:34 AM 40.6000 -132.5500 106° East 511 588 41,000  Level Oakland Oceanic (ODAPS)
Mon 12:03:25 PM 40.0333 -130.1167 110° East 519 597 41,000  Level Oakland Oceanic (ODAPS)
Mon 12:04:12 PM 40.0000 -130.0000 122° Southeast 509 586 41,000  Level Oakland Oceanic (ODAPS)
Mon 12:17:16 PM 38.9833 -128.0000 123° Southeast 502 578 41,000 -6 Level Oakland Oceanic (ODAPS)
Mon 12:20:15 PM 38.7331 -127.5744 111° Southeast 503 579 40,900  Descending Oakland Center
Mon 12:21:00 PM 38.7015 -127.4417 124° Southeast 509 586 41,000 98 Climbing FlightAware Transoceanic
Mon 12:21:16 PM 38.6561 -127.4269 124° Southeast 503 579 41,000  Level Oakland Center
Mon 12:21:54 PM 38.6333 -127.3000 125° Southeast 507 583 41,000  Level Oakland Oceanic (ODAPS)
Mon 12:22:00 PM 38.6234 -127.2941 124° Southeast 509 586 41,000  Level FlightAware Transoceanic
Mon 12:23:00 PM 38.5410 -127.1420 124° Southeast 502 578 41,000  Level FlightAware Transoceanic
Mon 12:23:18 PM 38.5092 -127.1228 125° Southeast 507 583 41,000  Level Oakland Center
Mon 12:24:00 PM 38.4667 -127.0000 111° Southeast 502 578 41,000  Level FlightAware Transoceanic
Mon 12:24:20 PM 38.4536 -126.9572 113° Southeast 509 586 41,000  Level Oakland Center
Mon 12:25:00 PM 38.4158 -126.8324 111° Southeast 502 578 41,000 -98 Level FlightAware Transoceanic
Mon 12:25:21 PM 38.3906 -126.7594 112° Southeast 505 581 40,900 -73 Descending Oakland Center
Mon 12:26:22 PM 38.3294 -126.5953 115° Southeast 510 587 40,900  Level Oakland Center
Mon 12:27:24 PM 38.2703 -126.4331 115° Southeast 509 586 40,900  Level Oakland Center
Mon 12:28:25 PM 38.2097 -126.2719 116° Southeast 509 586 40,900 49 Level Oakland Center
Mon 12:29:26 PM 38.1447 -126.0936 115° Southeast 510 587 41,000  Climbing Oakland Center
Mon 12:30:28 PM 38.0825 -125.9317 116° Southeast 510 587 40,900  Descending Oakland Center
Mon 12:31:29 PM 38.0225 -125.7689 115° Southeast 511 588 41,000 49 Climbing Oakland Center
Mon 12:32:30 PM 37.9597 -125.6061 116° Southeast 514 592 41,000 -49 Level Oakland Center
Mon 12:33:31 PM 37.8983 -125.4436 116° Southeast 514 592 40,900  Descending Oakland Center
Mon 12:34:32 PM 37.8372 -125.2806 115° Southeast 515 593 41,000 49 Climbing Oakland Center
Mon 12:35:34 PM 37.7756 -125.1197 116° Southeast 511 588 41,000 -49 Level Oakland Center
Mon 12:36:35 PM 37.7153 -124.9592 115° Southeast 509 586 40,900  Descending Oakland Center
Mon 12:37:36 PM 37.6531 -124.8006 116° Southeast 508 585 41,000 49 Climbing Oakland Center
Mon 12:38:37 PM 37.5794 -124.6108 116° Southeast 504 580 41,000  Level Oakland Center
Mon 12:39:39 PM 37.5181 -124.4531 116° Southeast 505 581 41,000  Level Oakland Center
Mon 12:40:40 PM 37.4567 -124.2942 116° Southeast 506 582 41,000 -49 Level Oakland Center
Mon 12:41:41 PM 37.3953 -124.1364 116° Southeast 506 582 40,900  Descending Oakland Center
Mon 12:42:42 PM 37.3325 -123.9783 117° Southeast 507 583 41,000 49 Climbing Oakland Center
Mon 12:43:44 PM 37.2664 -123.8169 117° Southeast 521 600 41,000  Level Oakland Center
Mon 12:44:45 PM 37.2025 -123.6586 117° Southeast 513 590 41,000  Level Oakland Center
Mon 12:45:46 PM 37.1411 -123.5003 116° Southeast 510 587 41,000 -49 Level Oakland Center
Mon 12:46:47 PM 37.0642 -123.3114 117° Southeast 510 587 40,900  Descending Oakland Center
Mon 12:47:48 PM 37.0014 -123.1533 116° Southeast 510 587 41,000 49 Climbing Oakland Center
Mon 12:48:50 PM 36.9361 -122.9964 117° Southeast 510 587 41,000 -49 Level Oakland Center
Mon 12:49:51 PM 36.8722 -122.8386 117° Southeast 512 589 40,900 -49 Descending Oakland Center
Mon 12:50:52 PM 36.8083 -122.6836 117° Southeast 507 583 40,900 49 Level Oakland Center
Mon 12:51:53 PM 36.7431 -122.5269 117° Southeast 513 590 41,000  Climbing Oakland Center
Mon 12:52:54 PM 36.6797 -122.3711 117° Southeast 508 585 40,900  Descending Oakland Center
Mon 12:53:55 PM 36.6139 -122.2153 118° Southeast 510 587 41,000 49 Climbing Oakland Center
Mon 12:54:56 PM 36.5478 -122.0592 118° Southeast 512 589 41,000  Level Oakland Center
Mon 12:55:58 PM 36.4686 -121.8725 118° Southeast 511 588 41,000  Level Oakland Center
Mon 12:56:59 PM 36.4122 -121.7364 117° Southeast 509 586 41,000 -49 Level Oakland Center
Mon 12:58:00 PM 36.3453 -121.5828 118° Southeast 509 586 40,900 -49 Descending Oakland Center
Mon 12:59:01 PM 36.2792 -121.4258 118° Southeast 512 589 40,900 49 Level Oakland Center
Mon 01:00:03 PM 36.1992 -121.2389 118° Southeast 512 589 41,000 49 Climbing Oakland Center
Mon 01:01:04 PM 36.1314 -121.0853 119° Southeast 510 587 41,000 -49 Level Oakland Center
Mon 01:02:06 PM 36.0642 -120.9289 118° Southeast 514 592 40,900  Descending Oakland Center
Mon 01:03:07 PM 35.9978 -120.7725 118° Southeast 514 592 41,000 49 Climbing Oakland Center
Mon 01:04:08 PM 35.9292 -120.6169 119° Southeast 515 593 41,000  Level Oakland Center
Mon 01:05:09 PM 35.8611 -120.4611 118° Southeast 513 590 41,000  Level Oakland Center
Mon 01:06:10 PM 35.7922 -120.3061 119° Southeast 513 590 41,000  Level Oakland Center
Mon 01:07:12 PM 35.7239 -120.1508 118° Southeast 512 589 41,000 -927 Level Oakland Center
Mon 01:08:13 PM 35.6522 -119.9975 120° Southeast 512 589 39,100 -2,557 Descending Oakland Center
Mon 01:09:14 PM 35.5414 -119.8856 141° Southeast 508 585 35,800 -2,971 Descending Oakland Center
Mon 01:09:56 PM 35.4475 -119.8042 145° Southeast 512 589 34,000 -2,135 Descending Los Angeles Center
Mon 01:10:58 PM 35.3325 -119.7067 145° Southeast 505 581 32,100 -1,790 Descending Los Angeles Center
Mon 01:12:00 PM 35.2225 -119.6122 145° Southeast 494 568 30,300 -1,728 Descending Los Angeles Center
Mon 01:13:03 PM 35.1156 -119.5214 145° Southeast 479 551 28,500 -1,728 Descending Los Angeles Center
Mon 01:14:05 PM 35.0122 -119.4319 145° Southeast 463 533 26,700 -1,742 Descending Los Angeles Center
Mon 01:15:07 PM 34.9094 -119.3458 146° Southeast 455 524 24,900 -1,743 Descending Los Angeles Center
Mon 01:21:29 PM 34.2950 -118.8587 146° Southeast 386 444 13,800 -1,729 Descending FlightAware ADS-B
Mon 01:21:46 PM 34.2626 -118.8467 163° South 365 420 13,400 -1,123 Descending FlightAware ADS-B
Mon 01:26:39 PM 34.0161 -118.5189 132° Southeast 284 327 8,000 -1,116 Descending FlightAware ADS-B
Mon 01:27:14 PM 34.0113 -118.4675 96° East 277 319 7,300 -1,040 Descending FlightAware ADS-B
Mon 01:27:54 PM 34.0155 -118.4047 85° East 246 283 6,700 -710 Descending FlightAware ADS-B
Mon 01:28:47 PM 34.0208 -118.3531 85° East 249 287 6,200 -1,565 Descending Los Angeles Center
Mon 01:29:49 PM 34.0281 -118.2706 84° East 213 245 3,700 -1,645 Descending Los Angeles Center
Mon 01:30:51 PM 34.0175 -118.2069 101° East 211 243 2,800 -726 Descending Los Angeles Center
Mon 01:31:53 PM 33.9772 -118.2289 204° Southwest 181 208 2,200 -339 Descending Los Angeles Center
Mon 01:32:55 PM 33.9644 -118.2819 254° West 173 199 2,100 -435 Descending Los Angeles Center
Mon 01:33:57 PM 33.9603 -118.3328 264° West 163 188 1,300 -871 Descending Los Angeles Center
Mon 01:34:59 PM 33.9544 -118.3906 263° West 152 175 300 -581 Descending Los Angeles Center
Mon 01:36:01 PM 33.9489 -118.4350 261° West 150 173 100 -194 Descending Los Angeles Center

Login

Don't have an account? Register now (free) for customized features, flight alerts, and more!